createdAt,value
2019-03-16T00:00:04.294Z,99.90
2019-03-16T00:02:32.799Z,99.90
2019-03-16T00:05:01.275Z,99.90
2019-03-16T00:07:33.199Z,99.90
2019-03-16T00:09:59.835Z,99.90
2019-03-16T00:12:28.244Z,99.90
2019-03-16T00:14:56.733Z,99.90
2019-03-16T00:17:25.132Z,99.90
2019-03-16T00:19:53.591Z,99.90
2019-03-16T00:22:22.004Z,99.90
2019-03-16T00:24:50.461Z,99.90
2019-03-16T00:27:18.892Z,99.90
2019-03-16T00:29:47.339Z,99.90
2019-03-16T00:32:15.905Z,99.90
2019-03-16T00:34:44.619Z,99.90
2019-03-16T00:37:13.054Z,99.90
2019-03-16T00:39:41.458Z,99.90
2019-03-16T00:42:09.903Z,99.90
2019-03-16T00:44:38.288Z,99.90
2019-03-16T00:47:06.735Z,99.90
2019-03-16T00:49:35.247Z,99.90
2019-03-16T00:52:03.696Z,99.90
2019-03-16T00:54:32.173Z,99.90
2019-03-16T00:57:00.808Z,99.90
2019-03-16T00:59:29.242Z,99.90
2019-03-16T01:01:57.811Z,99.90
2019-03-16T01:04:26.235Z,99.90
2019-03-16T01:06:54.674Z,99.90
2019-03-16T01:09:23.111Z,99.90
2019-03-16T01:11:51.566Z,99.90
2019-03-16T01:14:19.988Z,99.90
2019-03-16T01:16:48.372Z,99.90
2019-03-16T01:19:16.786Z,99.90
2019-03-16T01:21:45.231Z,99.90
2019-03-16T01:24:13.695Z,99.90
2019-03-16T01:26:42.167Z,99.90
2019-03-16T01:29:10.684Z,99.90
2019-03-16T01:31:39.116Z,99.90
2019-03-16T01:34:07.786Z,99.90
2019-03-16T01:36:36.288Z,99.90
2019-03-16T01:39:07.230Z,99.90
2019-03-16T01:41:35.649Z,99.90
2019-03-16T01:44:04.230Z,99.90
2019-03-16T01:46:32.699Z,99.90
2019-03-16T01:49:01.179Z,99.90
2019-03-16T01:51:29.572Z,99.90
2019-03-16T01:53:58.069Z,99.90
2019-03-16T01:56:26.708Z,99.90
2019-03-16T01:58:55.133Z,99.90
2019-03-16T02:01:23.526Z,99.90
2019-03-16T02:03:52.029Z,99.90
2019-03-16T02:06:20.462Z,99.90
2019-03-16T02:08:48.984Z,99.90
2019-03-16T02:11:17.519Z,99.90
2019-03-16T02:13:45.941Z,99.90
2019-03-16T02:16:14.358Z,99.90
2019-03-16T02:18:42.772Z,99.90
2019-03-16T02:21:11.273Z,99.90
2019-03-16T02:23:39.987Z,99.90
2019-03-16T02:26:08.572Z,99.90
2019-03-16T02:28:36.989Z,99.90
2019-03-16T02:31:06.325Z,99.90
2019-03-16T02:33:34.801Z,99.90
2019-03-16T02:36:05.157Z,99.90
2019-03-16T02:38:33.577Z,99.90
2019-03-16T02:41:02.241Z,99.90
2019-03-16T02:43:30.662Z,99.90
2019-03-16T02:45:59.248Z,99.90
2019-03-16T02:48:27.643Z,99.90
2019-03-16T02:50:56.038Z,99.90
2019-03-16T02:53:24.470Z,99.90
2019-03-16T02:55:52.854Z,99.90
2019-03-16T02:58:21.288Z,99.90
2019-03-16T03:00:49.685Z,99.90
2019-03-16T03:03:29.136Z,99.90
2019-03-16T03:05:48.252Z,99.90
2019-03-16T03:08:16.648Z,99.90
2019-03-16T03:10:46.192Z,99.90
2019-03-16T03:13:14.838Z,99.90
2019-03-16T03:15:43.229Z,99.90
2019-03-16T03:18:11.704Z,99.90
2019-03-16T03:20:40.234Z,99.90
2019-03-16T03:23:08.633Z,99.90
2019-03-16T03:25:37.037Z,99.90
2019-03-16T03:28:05.645Z,99.90
2019-03-16T03:30:34.069Z,99.90
2019-03-16T03:33:02.494Z,99.90
2019-03-16T03:35:30.946Z,99.90
2019-03-16T03:37:59.348Z,99.90
2019-03-16T03:40:27.770Z,99.90
2019-03-16T03:42:56.389Z,99.90
2019-03-16T03:45:24.826Z,99.90
2019-03-16T03:47:53.265Z,99.90
2019-03-16T03:50:21.658Z,99.90
2019-03-16T03:52:50.050Z,99.90
2019-03-16T03:55:18.494Z,99.90
2019-03-16T03:57:46.895Z,99.90
2019-03-16T04:00:17.099Z,99.90
2019-03-16T04:02:45.509Z,99.90
2019-03-16T04:05:13.970Z,99.90
2019-03-16T04:07:42.540Z,99.90
2019-03-16T04:10:12.172Z,99.90
2019-03-16T04:12:40.564Z,99.90
2019-03-16T04:15:12.885Z,99.90
2019-03-16T04:17:41.357Z,99.90
2019-03-16T04:20:11.988Z,99.90
2019-03-16T04:22:40.712Z,99.90
2019-03-16T04:25:09.334Z,99.90
2019-03-16T04:27:37.747Z,99.90
2019-03-16T04:30:12.260Z,99.90
2019-03-16T04:32:40.674Z,99.90
2019-03-16T04:35:09.123Z,99.90
2019-03-16T04:37:37.555Z,99.90
2019-03-16T04:40:11.133Z,99.90
2019-03-16T04:42:39.528Z,99.90
2019-03-16T04:45:10.433Z,99.90
2019-03-16T04:47:38.855Z,99.90
2019-03-16T04:50:10.769Z,99.90
2019-03-16T04:52:39.198Z,99.90
2019-03-16T04:55:08.969Z,99.90
2019-03-16T04:57:37.368Z,99.90
2019-03-16T05:00:08.885Z,99.90
2019-03-16T05:02:37.319Z,99.90
2019-03-16T05:05:06.199Z,99.90
2019-03-16T05:07:34.957Z,99.90
2019-03-16T05:10:07.064Z,99.90
2019-03-16T05:12:34.598Z,99.90
2019-03-16T05:15:03.300Z,99.90
2019-03-16T05:17:31.705Z,99.90
2019-03-16T05:20:00.194Z,99.90
2019-03-16T05:22:28.915Z,99.90
2019-03-16T05:24:57.309Z,99.90
2019-03-16T05:27:25.698Z,99.90
2019-03-16T05:29:54.535Z,99.90
2019-03-16T05:32:22.926Z,99.90
2019-03-16T05:34:56.335Z,99.90
2019-03-16T05:37:21.745Z,99.90
2019-03-16T05:39:50.144Z,99.90
2019-03-16T05:42:18.536Z,99.90
2019-03-16T05:44:46.976Z,99.90
2019-03-16T05:47:15.534Z,99.90
2019-03-16T05:49:43.930Z,99.90
2019-03-16T05:52:12.367Z,99.90
2019-03-16T05:54:40.796Z,99.90
2019-03-16T05:57:09.192Z,99.90
2019-03-16T05:59:37.649Z,99.90
2019-03-16T06:02:06.041Z,99.90
2019-03-16T06:04:34.424Z,99.90
2019-03-16T06:07:03.217Z,99.90
2019-03-16T06:09:31.613Z,99.90
2019-03-16T06:12:00.001Z,99.90
2019-03-16T06:14:28.440Z,99.90
2019-03-16T06:16:56.895Z,99.90
2019-03-16T06:19:25.281Z,99.90
2019-03-16T06:21:53.666Z,99.90
2019-03-16T06:24:22.234Z,99.90
2019-03-16T06:26:50.629Z,99.90
2019-03-16T06:29:19.016Z,99.90
2019-03-16T06:31:47.549Z,99.90
2019-03-16T06:34:15.944Z,99.90
2019-03-16T06:36:44.333Z,99.90
2019-03-16T06:39:13.094Z,99.90
2019-03-16T06:41:43.482Z,99.90
2019-03-16T06:44:11.578Z,99.90
2019-03-16T06:46:40.177Z,99.90
2019-03-16T06:49:08.569Z,99.90
2019-03-16T06:51:36.965Z,99.90
2019-03-16T06:54:05.551Z,99.90
2019-03-16T06:56:33.945Z,99.90
2019-03-16T06:59:02.356Z,99.90
2019-03-16T07:01:30.785Z,99.90
2019-03-16T07:03:59.181Z,99.90
2019-03-16T07:06:27.576Z,99.90
2019-03-16T07:08:56.356Z,99.90
2019-03-16T07:11:24.757Z,99.90
2019-03-16T07:13:53.209Z,99.90
2019-03-16T07:16:21.918Z,99.90
2019-03-16T07:18:58.651Z,99.90
2019-03-16T07:21:20.643Z,99.90
2019-03-16T07:23:49.173Z,99.90
2019-03-16T07:26:17.536Z,99.90
2019-03-16T07:28:45.926Z,99.90
2019-03-16T07:31:14.350Z,99.90
2019-03-16T07:33:42.747Z,99.90
2019-03-16T07:36:11.185Z,99.90
2019-03-16T07:38:39.587Z,99.90
2019-03-16T07:41:08.030Z,99.90
2019-03-16T07:43:36.688Z,99.90
2019-03-16T07:46:05.091Z,99.90
2019-03-16T07:48:33.569Z,99.90
2019-03-16T07:51:02.030Z,99.90
2019-03-16T07:53:30.409Z,99.90
2019-03-16T07:55:58.925Z,99.90
2019-03-16T07:58:27.379Z,99.90
2019-03-16T08:00:55.778Z,99.90
2019-03-16T08:03:24.184Z,99.90
2019-03-16T08:05:52.876Z,99.90
2019-03-16T08:08:21.283Z,99.90
2019-03-16T08:10:49.741Z,99.90
2019-03-16T08:13:18.164Z,99.90
2019-03-16T08:15:46.668Z,99.90
2019-03-16T08:18:15.069Z,99.90
2019-03-16T08:20:43.469Z,99.90
2019-03-16T08:23:12.175Z,99.90
2019-03-16T08:25:40.639Z,99.90
2019-03-16T08:28:09.040Z,99.90
2019-03-16T08:30:37.494Z,99.90
2019-03-16T08:33:05.890Z,99.90
2019-03-16T08:35:34.289Z,99.90
2019-03-16T08:38:02.835Z,99.90
2019-03-16T08:40:31.234Z,99.90
2019-03-16T08:42:59.633Z,99.90
2019-03-16T08:45:28.061Z,99.90
2019-03-16T08:47:56.470Z,99.90
2019-03-16T08:50:24.860Z,99.90
2019-03-16T08:52:53.905Z,99.90
2019-03-16T08:55:22.514Z,99.90
2019-03-16T08:57:50.921Z,99.90
2019-03-16T09:00:19.357Z,99.90
2019-03-16T09:02:47.897Z,99.90
2019-03-16T09:05:16.301Z,99.90
2019-03-16T09:07:44.741Z,99.90
2019-03-16T09:10:13.293Z,99.90
2019-03-16T09:12:54.004Z,99.90
2019-03-16T09:15:13.598Z,99.90
2019-03-16T09:17:41.998Z,99.90
2019-03-16T09:20:10.856Z,99.90
2019-03-16T09:22:39.549Z,99.90
2019-03-16T09:25:09.579Z,99.90
2019-03-16T09:27:38.148Z,99.90
2019-03-16T09:30:14.081Z,99.90
2019-03-16T09:32:42.479Z,99.90
2019-03-16T09:35:10.873Z,99.90
2019-03-16T09:37:39.320Z,99.90
2019-03-16T09:40:11.376Z,99.90
2019-03-16T09:42:39.893Z,99.90
2019-03-16T09:45:12.314Z,99.90
2019-03-16T09:47:40.780Z,99.90
2019-03-16T09:50:10.292Z,99.90
2019-03-16T09:52:38.970Z,99.90
2019-03-16T09:55:12.513Z,99.80
2019-03-16T09:57:40.909Z,99.90
2019-03-16T10:00:16.498Z,99.00
2019-03-16T10:02:44.949Z,99.90
2019-03-16T10:05:13.433Z,99.90
2019-03-16T10:07:41.834Z,99.90
2019-03-16T10:10:12.773Z,99.60
2019-03-16T10:12:41.415Z,99.50
2019-03-16T10:15:12.233Z,99.10
2019-03-16T10:17:40.630Z,98.90
2019-03-16T10:20:11.525Z,98.60
2019-03-16T10:22:39.957Z,97.90
2019-03-16T10:25:08.941Z,98.00
2019-03-16T10:27:37.397Z,97.30
2019-03-16T10:30:09.322Z,97.50
2019-03-16T10:32:37.800Z,96.40
2019-03-16T10:35:06.547Z,96.90
2019-03-16T10:37:35.333Z,97.40
2019-03-16T10:40:05.929Z,96.70
2019-03-16T10:42:34.327Z,96.40
2019-03-16T10:45:02.802Z,95.00
2019-03-16T10:47:31.190Z,95.20
2019-03-16T10:49:59.594Z,94.80
2019-03-16T10:52:28.266Z,94.60
2019-03-16T10:54:56.656Z,93.30
2019-03-16T10:57:25.065Z,93.00
2019-03-16T10:59:53.501Z,92.20
2019-03-16T11:02:21.904Z,92.20
2019-03-16T11:04:50.358Z,93.10
2019-03-16T11:07:18.745Z,92.40
2019-03-16T11:09:47.141Z,92.20
2019-03-16T11:12:15.590Z,92.50
2019-03-16T11:14:43.987Z,93.30
2019-03-16T11:17:12.385Z,92.50
2019-03-16T11:19:40.819Z,92.00
2019-03-16T11:22:09.301Z,91.70
2019-03-16T11:24:37.694Z,92.10
2019-03-16T11:27:06.131Z,92.70
2019-03-16T11:29:34.528Z,92.70
2019-03-16T11:32:02.988Z,92.10
2019-03-16T11:34:31.395Z,92.10
2019-03-16T11:36:59.790Z,91.50
2019-03-16T11:39:28.541Z,92.30
2019-03-16T11:41:56.939Z,92.10
2019-03-16T11:44:25.340Z,92.10
2019-03-16T11:46:53.786Z,92.60
2019-03-16T11:49:22.182Z,92.00
2019-03-16T11:51:50.572Z,91.60
2019-03-16T11:54:19.042Z,92.20
2019-03-16T11:56:47.437Z,92.20
2019-03-16T11:59:21.678Z,92.10
2019-03-16T12:01:46.021Z,92.20
2019-03-16T12:04:14.493Z,92.20
2019-03-16T12:06:42.894Z,92.00
2019-03-16T12:09:11.334Z,92.40
2019-03-16T12:11:39.724Z,91.80
2019-03-16T12:14:08.434Z,91.10
2019-03-16T12:16:36.825Z,92.00
2019-03-16T12:19:05.386Z,92.30
2019-03-16T12:21:33.849Z,93.40
2019-03-16T12:24:02.241Z,93.60
2019-03-16T12:26:50.017Z,93.80
2019-03-16T12:29:18.461Z,93.80
2019-03-16T12:31:46.859Z,92.70
2019-03-16T12:34:15.253Z,92.10
2019-03-16T12:36:43.917Z,91.00
2019-03-16T12:39:12.313Z,90.80
2019-03-16T12:41:41.661Z,89.30
2019-03-16T12:44:10.112Z,89.10
2019-03-16T12:46:38.713Z,89.20
2019-03-16T12:49:07.150Z,89.60
2019-03-16T12:51:35.776Z,90.60
2019-03-16T12:54:04.180Z,89.10
2019-03-16T12:56:32.584Z,89.40
2019-03-16T12:59:09.840Z,90.00
2019-03-16T13:01:31.158Z,90.10
2019-03-16T13:03:59.541Z,90.90
2019-03-16T13:06:28.005Z,91.70
2019-03-16T13:08:56.400Z,91.50
2019-03-16T13:11:24.792Z,91.90
2019-03-16T13:13:53.257Z,92.20
2019-03-16T13:16:21.653Z,92.70
2019-03-16T13:18:50.047Z,93.30
2019-03-16T13:21:18.480Z,93.50
2019-03-16T13:23:46.970Z,93.90
2019-03-16T13:26:15.360Z,94.50
2019-03-16T13:28:43.794Z,94.50
2019-03-16T13:31:12.188Z,94.40
2019-03-16T13:33:40.636Z,94.20
2019-03-16T13:36:09.805Z,94.20
2019-03-16T13:38:38.276Z,93.70
2019-03-16T13:41:06.714Z,94.00
2019-03-16T13:43:35.109Z,94.50
2019-03-16T13:46:03.517Z,93.90
2019-03-16T13:48:32.012Z,94.10
2019-03-16T13:51:00.454Z,94.10
2019-03-16T13:53:28.903Z,93.80
2019-03-16T13:55:57.773Z,92.90
2019-03-16T13:58:26.205Z,92.70
2019-03-16T14:00:54.604Z,92.70
2019-03-16T14:03:22.997Z,93.10
2019-03-16T14:05:51.677Z,93.40
2019-03-16T14:08:20.084Z,93.40
2019-03-16T14:10:48.485Z,93.00
2019-03-16T14:13:17.154Z,93.20
2019-03-16T14:15:45.553Z,93.00
2019-03-16T14:18:13.947Z,92.90
2019-03-16T14:20:42.561Z,93.00
2019-03-16T14:23:10.957Z,92.90
2019-03-16T14:25:39.628Z,93.00
2019-03-16T14:28:08.068Z,93.10
2019-03-16T14:30:41.397Z,93.30
2019-03-16T14:33:06.587Z,92.70
2019-03-16T14:35:35.097Z,91.80
2019-03-16T14:38:03.541Z,91.10
2019-03-16T14:40:32.123Z,91.00
2019-03-16T14:43:00.644Z,90.90
2019-03-16T14:45:29.325Z,90.20
2019-03-16T14:47:57.748Z,90.50
2019-03-16T14:50:27.685Z,90.50
2019-03-16T14:52:56.199Z,89.80
2019-03-16T14:55:24.656Z,88.70
2019-03-16T14:57:53.069Z,88.40
2019-03-16T15:00:21.458Z,88.40
2019-03-16T15:02:49.922Z,88.20
2019-03-16T15:05:18.332Z,88.00
2019-03-16T15:07:49.540Z,88.70
2019-03-16T15:10:18.305Z,88.90
2019-03-16T15:12:46.699Z,88.70
2019-03-16T15:15:19.164Z,87.90
2019-03-16T15:17:47.599Z,87.10
2019-03-16T15:20:16.074Z,87.60
2019-03-16T15:22:44.505Z,87.90
2019-03-16T15:25:13.780Z,88.10
2019-03-16T15:27:42.174Z,89.00
2019-03-16T15:30:18.766Z,87.50
2019-03-16T15:32:47.203Z,87.90
2019-03-16T15:35:15.677Z,86.30
2019-03-16T15:37:44.078Z,86.40
2019-03-16T15:40:14.238Z,86.30
2019-03-16T15:42:42.718Z,85.20
2019-03-16T15:45:20.996Z,86.10
2019-03-16T15:47:49.382Z,86.40
2019-03-16T15:50:17.773Z,86.20
2019-03-16T15:52:46.233Z,86.80
2019-03-16T15:55:14.717Z,87.10
2019-03-16T15:57:43.180Z,87.40
2019-03-16T16:00:19.846Z,87.70
2019-03-16T16:02:48.456Z,88.50
2019-03-16T16:05:16.852Z,88.00
2019-03-16T16:07:45.602Z,87.40
2019-03-16T16:10:15.493Z,87.50
2019-03-16T16:12:43.895Z,87.50
2019-03-16T16:15:13.323Z,87.90
2019-03-16T16:17:41.740Z,87.90
2019-03-16T16:20:12.381Z,88.00
2019-03-16T16:22:40.815Z,88.00
2019-03-16T16:25:11.324Z,88.40
2019-03-16T16:27:39.825Z,87.50
2019-03-16T16:30:11.841Z,87.30
2019-03-16T16:32:40.233Z,88.60
2019-03-16T16:35:10.391Z,88.20
2019-03-16T16:37:38.857Z,88.60
2019-03-16T16:40:12.773Z,88.30
2019-03-16T16:42:41.345Z,87.20
2019-03-16T16:45:14.937Z,86.80
2019-03-16T16:47:43.366Z,87.60
2019-03-16T16:50:14.517Z,87.30
2019-03-16T16:52:42.944Z,87.90
2019-03-16T16:55:11.554Z,88.10
2019-03-16T16:57:39.951Z,88.70
2019-03-16T17:00:14.085Z,88.60
2019-03-16T17:02:42.552Z,88.30
2019-03-16T17:05:11.056Z,88.30
2019-03-16T17:07:39.478Z,88.30
2019-03-16T17:10:16.401Z,88.60
2019-03-16T17:12:45.161Z,88.70
2019-03-16T17:15:17.775Z,88.20
2019-03-16T17:17:46.213Z,88.50
2019-03-16T17:20:15.509Z,88.90
2019-03-16T17:22:43.908Z,89.40
2019-03-16T17:25:16.288Z,89.10
2019-03-16T17:27:44.770Z,89.60
2019-03-16T17:30:18.445Z,88.90
2019-03-16T17:32:46.844Z,89.60
2019-03-16T17:35:15.604Z,89.90
2019-03-16T17:37:44.013Z,89.40
2019-03-16T17:40:14.057Z,89.30
2019-03-16T17:42:42.502Z,89.60
2019-03-16T17:45:12.435Z,89.70
2019-03-16T17:47:40.833Z,90.00
2019-03-16T17:50:16.067Z,89.20
2019-03-16T17:52:44.470Z,89.60
2019-03-16T17:55:16.518Z,90.00
2019-03-16T17:57:45.714Z,89.90
2019-03-16T18:00:16.396Z,90.00
2019-03-16T18:02:51.152Z,90.10
2019-03-16T18:05:15.099Z,90.10
2019-03-16T18:07:43.537Z,90.10
2019-03-16T18:10:13.581Z,90.20
2019-03-16T18:12:41.976Z,90.40
2019-03-16T18:15:15.256Z,90.30
2019-03-16T18:17:43.721Z,90.00
2019-03-16T18:20:17.070Z,90.10
2019-03-16T18:22:44.775Z,90.10
2019-03-16T18:25:13.712Z,90.20
2019-03-16T18:27:42.184Z,90.30
2019-03-16T18:30:14.313Z,90.50
2019-03-16T18:32:42.746Z,90.60
2019-03-16T18:35:11.210Z,90.80
2019-03-16T18:37:40.048Z,90.80
2019-03-16T18:40:11.365Z,90.50
2019-03-16T18:42:39.761Z,91.00
2019-03-16T18:45:16.457Z,91.10
2019-03-16T18:47:44.916Z,91.20
2019-03-16T18:50:13.399Z,91.40
2019-03-16T18:52:41.829Z,91.70
2019-03-16T18:55:12.447Z,91.80
2019-03-16T18:57:40.882Z,92.10
2019-03-16T19:00:14.882Z,91.90
2019-03-16T19:02:43.272Z,92.20
2019-03-16T19:05:11.723Z,92.60
2019-03-16T19:07:40.199Z,92.40
2019-03-16T19:10:13.490Z,92.40
2019-03-16T19:12:41.917Z,92.80
2019-03-16T19:15:15.208Z,93.00
2019-03-16T19:17:43.832Z,93.00
2019-03-16T19:20:16.194Z,93.00
2019-03-16T19:22:44.595Z,93.10
2019-03-16T19:25:17.592Z,93.10
2019-03-16T19:27:45.991Z,93.40
2019-03-16T19:30:15.337Z,93.50
2019-03-16T19:32:44.216Z,93.80
2019-03-16T19:35:12.894Z,93.90
2019-03-16T19:37:41.421Z,94.00
2019-03-16T19:40:12.430Z,94.20
2019-03-16T19:42:40.876Z,94.30
2019-03-16T19:45:10.944Z,94.20
2019-03-16T19:47:39.361Z,94.40
2019-03-16T19:50:14.963Z,94.50
2019-03-16T19:52:43.764Z,94.50
2019-03-16T19:55:13.466Z,94.20
2019-03-16T19:57:41.857Z,94.00
2019-03-16T20:00:18.303Z,94.00
2019-03-16T20:02:51.040Z,93.90
2019-03-16T20:05:17.109Z,94.10
2019-03-16T20:07:45.528Z,94.20
2019-03-16T20:10:18.555Z,94.30
2019-03-16T20:12:47.009Z,94.50
2019-03-16T20:15:16.141Z,94.50
2019-03-16T20:17:45.873Z,94.70
2019-03-16T20:20:17.732Z,94.60
2019-03-16T20:22:46.134Z,94.60
2019-03-16T20:25:14.788Z,94.60
2019-03-16T20:27:43.178Z,94.60
2019-03-16T20:30:25.961Z,94.90
2019-03-16T20:32:50.114Z,95.00
2019-03-16T20:35:17.915Z,94.60
2019-03-16T20:37:46.314Z,94.80
2019-03-16T20:40:16.183Z,94.80
2019-03-16T20:42:44.730Z,94.90
2019-03-16T20:45:13.735Z,94.80
2019-03-16T20:47:42.201Z,94.80
2019-03-16T20:50:15.897Z,94.90
2019-03-16T20:52:45.373Z,95.10
2019-03-16T20:55:14.119Z,95.30
2019-03-16T20:57:42.511Z,95.40
2019-03-16T21:00:16.381Z,95.40
2019-03-16T21:02:44.797Z,95.60
2019-03-16T21:05:13.617Z,95.80
2019-03-16T21:07:42.279Z,95.70
2019-03-16T21:10:11.926Z,95.90
2019-03-16T21:12:40.320Z,95.70
2019-03-16T21:15:10.903Z,95.80
2019-03-16T21:17:39.319Z,95.80
2019-03-16T21:20:12.958Z,95.80
2019-03-16T21:22:41.377Z,96.10
2019-03-16T21:25:12.276Z,96.00
2019-03-16T21:27:40.754Z,96.20
2019-03-16T21:30:14.824Z,96.20
2019-03-16T21:32:43.282Z,96.60
2019-03-16T21:35:11.729Z,96.70
2019-03-16T21:37:40.131Z,96.80
2019-03-16T21:40:13.328Z,96.90
2019-03-16T21:42:41.738Z,97.00
2019-03-16T21:45:11.383Z,97.30
2019-03-16T21:47:40.042Z,97.20
2019-03-16T21:50:12.658Z,97.40
2019-03-16T21:52:44.044Z,97.60
2019-03-16T21:55:12.456Z,97.60
2019-03-16T21:57:40.918Z,97.60
2019-03-16T22:00:17.449Z,97.50
2019-03-16T22:02:46.268Z,97.70
2019-03-16T22:05:14.730Z,97.80
2019-03-16T22:07:43.118Z,97.80
2019-03-16T22:10:14.375Z,98.00
2019-03-16T22:12:42.952Z,98.00
2019-03-16T22:15:13.293Z,97.90
2019-03-16T22:17:41.716Z,98.10
2019-03-16T22:20:17.810Z,98.10
2019-03-16T22:22:46.201Z,98.30
2019-03-16T22:25:14.821Z,98.60
2019-03-16T22:27:43.214Z,98.80
2019-03-16T22:30:14.041Z,98.50
2019-03-16T22:32:42.478Z,98.50
2019-03-16T22:35:10.877Z,98.50
2019-03-16T22:37:39.359Z,98.40
2019-03-16T22:40:14.575Z,98.30
2019-03-16T22:42:43.139Z,98.30
2019-03-16T22:45:12.876Z,98.40
2019-03-16T22:47:41.333Z,98.40
2019-03-16T22:50:11.866Z,98.40
2019-03-16T22:52:40.260Z,98.50
2019-03-16T22:55:08.949Z,98.10
2019-03-16T22:57:37.424Z,98.10
2019-03-16T23:00:11.795Z,98.10
2019-03-16T23:02:40.298Z,98.00
2019-03-16T23:05:10.441Z,97.90
2019-03-16T23:07:38.841Z,97.70
2019-03-16T23:10:10.350Z,97.60
2019-03-16T23:12:38.759Z,97.50
2019-03-16T23:15:10.998Z,97.40
2019-03-16T23:17:39.725Z,97.40
2019-03-16T23:20:09.323Z,97.40
2019-03-16T23:22:37.754Z,97.30
2019-03-16T23:25:08.241Z,97.20
2019-03-16T23:27:36.647Z,97.20
2019-03-16T23:30:09.197Z,97.00
2019-03-16T23:32:37.757Z,97.10
2019-03-16T23:35:07.824Z,97.00
2019-03-16T23:37:36.287Z,97.20
2019-03-16T23:40:12.789Z,97.30
2019-03-16T23:42:41.180Z,97.30
2019-03-16T23:45:11.128Z,97.30
2019-03-16T23:47:39.793Z,97.40
2019-03-16T23:50:10.337Z,97.10
2019-03-16T23:52:38.745Z,97.20
2019-03-16T23:55:08.529Z,97.50
2019-03-16T23:57:36.924Z,97.90
